createdAt,value
2022-11-24T00:01:30.096Z,6.30
2022-11-24T00:04:05.838Z,6.15
2022-11-24T00:06:35.697Z,5.93
2022-11-24T00:09:05.605Z,5.80
2022-11-24T00:11:36.416Z,5.93
2022-11-24T00:14:05.408Z,6.13
2022-11-24T00:16:36.501Z,9.70
2022-11-24T00:19:09.062Z,9.18
2022-11-24T00:21:37.998Z,6.65
2022-11-24T00:24:06.686Z,5.78
2022-11-24T00:26:37.280Z,6.10
2022-11-24T00:29:07.940Z,5.93
2022-11-24T00:31:38.353Z,5.78
2022-11-24T00:34:11.045Z,5.90
2022-11-24T00:36:39.892Z,6.30
2022-11-24T00:39:12.341Z,5.47
2022-11-24T00:41:40.427Z,6.38
2022-11-24T00:44:08.496Z,6.55
2022-11-24T00:46:35.960Z,6.80
2022-11-24T00:49:03.845Z,7.13
2022-11-24T00:51:31.273Z,6.60
2022-11-24T00:54:01.196Z,6.82
2022-11-24T00:56:29.946Z,6.60
2022-11-24T00:58:57.239Z,6.82
2022-11-24T01:01:27.927Z,6.20
2022-11-24T01:03:55.750Z,6.50
2022-11-24T01:06:26.226Z,6.80
2022-11-24T01:08:54.747Z,6.53
2022-11-24T01:11:54.901Z,6.60
2022-11-24T01:14:24.624Z,6.82
2022-11-24T01:16:52.666Z,6.55
2022-11-24T01:19:20.345Z,6.07
2022-11-24T01:21:47.864Z,5.50
2022-11-24T01:24:16.037Z,5.63
2022-11-24T01:26:43.272Z,5.85
2022-11-24T01:29:12.199Z,6.47
2022-11-24T01:31:39.896Z,6.00
2022-11-24T01:34:07.702Z,5.82
2022-11-24T01:36:34.962Z,5.72
2022-11-24T01:39:02.305Z,6.07
2022-11-24T01:41:29.564Z,6.47
2022-11-24T01:43:57.749Z,6.57
2022-11-24T01:46:45.589Z,7.10
2022-11-24T01:49:27.946Z,7.13
2022-11-24T01:52:01.528Z,7.00
2022-11-24T01:54:36.659Z,7.15
2022-11-24T01:57:23.752Z,7.40
2022-11-24T01:59:58.259Z,7.30
2022-11-24T02:02:29.712Z,7.78
2022-11-24T02:05:03.842Z,7.88
2022-11-24T02:07:32.803Z,7.25
2022-11-24T02:10:08.526Z,7.45
2022-11-24T02:12:39.222Z,6.68
2022-11-24T02:15:08.419Z,7.03
2022-11-24T02:17:35.854Z,6.93
2022-11-24T02:20:07.817Z,7.20
2022-11-24T02:23:07.762Z,6.30
2022-11-24T02:25:54.389Z,7.00
2022-11-24T02:28:25.473Z,6.75
2022-11-24T02:30:54.535Z,7.60
2022-11-24T02:33:22.627Z,7.10
2022-11-24T02:35:49.792Z,6.68
2022-11-24T02:38:17.054Z,7.07
2022-11-24T02:40:48.376Z,7.47
2022-11-24T02:43:21.867Z,7.85
2022-11-24T02:45:49.019Z,7.80
2022-11-24T02:48:16.841Z,8.15
2022-11-24T02:50:44.046Z,8.68
2022-11-24T02:53:11.452Z,8.13
2022-11-24T02:55:38.618Z,8.40
2022-11-24T02:58:05.920Z,8.20
2022-11-24T03:00:33.102Z,7.82
2022-11-24T03:03:00.423Z,8.45
2022-11-24T03:05:27.628Z,8.32
2022-11-24T03:07:54.789Z,7.95
2022-11-24T03:10:21.979Z,8.45
2022-11-24T03:12:49.150Z,8.40
2022-11-24T03:15:16.459Z,8.55
2022-11-24T03:17:43.694Z,7.70
2022-11-24T03:20:11.487Z,8.60
2022-11-24T03:22:38.719Z,7.55
2022-11-24T03:25:06.381Z,7.97
2022-11-24T03:27:33.701Z,8.07
2022-11-24T03:30:00.931Z,8.38
2022-11-24T03:32:28.144Z,9.07
2022-11-24T03:34:55.390Z,8.45
2022-11-24T03:37:22.598Z,8.68
2022-11-24T03:39:49.864Z,9.20
2022-11-24T03:42:17.119Z,9.32
2022-11-24T03:44:44.276Z,8.35
2022-11-24T03:47:12.312Z,8.50
2022-11-24T03:49:41.348Z,7.97
2022-11-24T03:52:09.002Z,8.73
2022-11-24T03:54:36.237Z,8.25
2022-11-24T03:57:03.733Z,8.43
2022-11-24T03:59:30.942Z,8.68
2022-11-24T04:01:58.162Z,8.02
2022-11-24T04:04:25.375Z,8.50
2022-11-24T04:06:52.535Z,9.40
2022-11-24T04:09:19.739Z,8.90
2022-11-24T04:12:05.713Z,8.27
2022-11-24T04:14:33.330Z,9.25
2022-11-24T04:17:00.715Z,8.70
2022-11-24T04:19:27.845Z,8.60
2022-11-24T04:21:56.025Z,8.10
2022-11-24T04:24:23.190Z,9.00
2022-11-24T04:26:50.346Z,8.65
2022-11-24T04:29:17.491Z,9.65
2022-11-24T04:31:44.758Z,8.88
2022-11-24T04:34:12.039Z,9.02
2022-11-24T04:36:40.936Z,8.27
2022-11-24T04:39:20.020Z,9.15
2022-11-24T04:41:53.929Z,8.65
2022-11-24T04:44:21.255Z,8.82
2022-11-24T04:46:48.500Z,9.18
2022-11-24T04:49:16.080Z,8.00
2022-11-24T04:51:43.628Z,8.63
2022-11-24T04:54:13.229Z,8.98
2022-11-24T04:56:42.382Z,8.30
2022-11-24T04:59:15.003Z,8.35
2022-11-24T05:01:44.313Z,8.00
2022-11-24T05:04:15.447Z,7.95
2022-11-24T05:06:42.724Z,8.10
2022-11-24T05:09:16.031Z,7.05
2022-11-24T05:11:44.387Z,7.50
2022-11-24T05:14:11.615Z,7.60
2022-11-24T05:16:38.854Z,6.57
2022-11-24T05:19:06.165Z,7.60
2022-11-24T05:21:33.338Z,7.80
2022-11-24T05:24:00.559Z,7.60
2022-11-24T05:26:28.008Z,7.38
2022-11-24T05:28:55.224Z,6.85
2022-11-24T05:31:22.630Z,6.75
2022-11-24T05:33:49.894Z,7.00
2022-11-24T05:36:35.884Z,7.13
2022-11-24T05:39:03.289Z,5.90
2022-11-24T05:41:30.454Z,6.97
2022-11-24T05:43:57.629Z,6.22
2022-11-24T05:46:25.054Z,7.28
2022-11-24T05:48:52.235Z,6.50
2022-11-24T05:51:19.469Z,6.57
2022-11-24T05:53:46.643Z,6.50
2022-11-24T05:56:13.827Z,6.70
2022-11-24T05:58:42.747Z,7.13
2022-11-24T06:01:09.938Z,6.70
2022-11-24T06:03:37.076Z,5.88
2022-11-24T06:06:04.258Z,6.80
2022-11-24T06:08:31.672Z,6.47
2022-11-24T06:11:20.383Z,8.05
2022-11-24T06:13:48.620Z,9.40
2022-11-24T06:16:16.239Z,7.53
2022-11-24T06:18:43.438Z,7.63
2022-11-24T06:21:12.041Z,9.20
2022-11-24T06:23:40.633Z,9.60
2022-11-24T06:26:09.107Z,6.95
2022-11-24T06:28:36.346Z,7.90
2022-11-24T06:31:05.274Z,7.18
2022-11-24T06:33:34.952Z,7.00
2022-11-24T06:36:06.139Z,8.07
2022-11-24T06:38:36.131Z,7.68
2022-11-24T06:41:11.761Z,7.63
2022-11-24T06:43:39.233Z,10.20
2022-11-24T06:46:07.169Z,11.35
2022-11-24T06:48:34.555Z,11.82
2022-11-24T06:51:05.644Z,13.68
2022-11-24T06:53:37.834Z,13.38
2022-11-24T06:56:16.578Z,15.13
2022-11-24T06:58:47.866Z,13.30
2022-11-24T07:01:24.681Z,11.30
2022-11-24T07:03:54.296Z,11.55
2022-11-24T07:06:23.757Z,14.13
2022-11-24T07:08:52.588Z,12.45
2022-11-24T07:11:24.745Z,9.73
2022-11-24T07:13:56.635Z,6.93
2022-11-24T07:16:26.552Z,5.63
2022-11-24T07:18:55.452Z,5.93
2022-11-24T07:21:25.472Z,7.60
2022-11-24T07:23:55.635Z,6.68
2022-11-24T07:26:24.280Z,5.35
2022-11-24T07:28:51.505Z,5.07
2022-11-24T07:31:21.920Z,7.03
2022-11-24T07:33:51.350Z,6.03
2022-11-24T07:36:19.228Z,6.13
2022-11-24T07:38:46.902Z,6.13
2022-11-24T07:41:16.841Z,7.05
2022-11-24T07:43:43.997Z,5.70
2022-11-24T07:46:14.616Z,6.35
2022-11-24T07:48:42.261Z,7.78
2022-11-24T07:51:09.753Z,7.60
2022-11-24T07:53:37.900Z,7.97
2022-11-24T07:56:07.075Z,6.80
2022-11-24T07:58:37.117Z,6.63
2022-11-24T08:01:13.990Z,6.82
2022-11-24T08:03:42.733Z,5.82
2022-11-24T08:06:31.901Z,4.80
2022-11-24T08:08:59.032Z,4.63
2022-11-24T08:11:27.313Z,4.90
2022-11-24T08:13:54.488Z,5.00
2022-11-24T08:16:21.929Z,4.20
2022-11-24T08:18:54.721Z,4.40
2022-11-24T08:21:23.600Z,3.97
2022-11-24T08:23:57.678Z,4.55
2022-11-24T08:26:25.556Z,6.45
2022-11-24T08:28:57.076Z,5.45
2022-11-24T08:31:27.409Z,7.93
2022-11-24T08:33:57.973Z,5.15
2022-11-24T08:36:25.373Z,6.00
2022-11-24T08:38:57.988Z,4.95
2022-11-24T08:41:27.035Z,8.27
2022-11-24T08:43:55.140Z,7.47
2022-11-24T08:46:23.462Z,8.82
2022-11-24T08:48:53.779Z,6.00
2022-11-24T08:51:24.890Z,7.68
2022-11-24T08:54:01.380Z,6.57
2022-11-24T08:56:32.815Z,11.70
2022-11-24T08:59:00.620Z,10.77
2022-11-24T09:01:29.195Z,8.65
2022-11-24T09:03:56.614Z,7.15
2022-11-24T09:06:30.105Z,9.98
2022-11-24T09:08:59.368Z,12.02
2022-11-24T09:11:27.591Z,12.77
2022-11-24T09:13:55.971Z,8.73
2022-11-24T09:16:27.536Z,10.90
2022-11-24T09:19:04.629Z,11.38
2022-11-24T09:21:34.246Z,9.95
2022-11-24T09:24:01.735Z,11.32
2022-11-24T09:26:32.752Z,10.13
2022-11-24T09:29:02.913Z,13.32
2022-11-24T09:31:34.280Z,14.85
2022-11-24T09:34:11.384Z,13.80
2022-11-24T09:36:38.613Z,10.38
2022-11-24T09:39:05.825Z,7.35
2022-11-24T09:42:02.214Z,6.60
2022-11-24T09:45:03.034Z,5.80
2022-11-24T09:47:59.130Z,9.95
2022-11-24T09:50:35.489Z,7.40
2022-11-24T09:53:21.078Z,6.20
2022-11-24T09:55:55.800Z,7.10
2022-11-24T09:58:44.895Z,6.13
2022-11-24T10:01:33.896Z,5.93
2022-11-24T10:04:06.358Z,4.97
2022-11-24T10:07:03.885Z,5.43
2022-11-24T10:10:00.746Z,4.80
2022-11-24T10:13:26.825Z,8.35
2022-11-24T10:16:27.464Z,5.22
2022-11-24T10:19:22.949Z,4.50
2022-11-24T10:22:05.173Z,5.20
2022-11-24T10:25:09.195Z,4.13
2022-11-24T10:27:49.359Z,3.90
2022-11-24T10:30:21.561Z,4.18
2022-11-24T10:33:00.693Z,3.50
2022-11-24T10:35:58.486Z,4.53
2022-11-24T10:38:45.553Z,4.40
2022-11-24T10:41:41.582Z,3.92
2022-11-24T10:44:17.371Z,3.90
2022-11-24T10:46:44.914Z,4.18
2022-11-24T10:49:22.264Z,4.00
2022-11-24T10:52:18.739Z,3.70
2022-11-24T10:55:00.716Z,3.17
2022-11-24T10:57:38.220Z,3.92
2022-11-24T11:00:25.687Z,3.58
2022-11-24T11:03:18.142Z,3.75
2022-11-24T11:05:53.910Z,3.60
2022-11-24T11:08:30.238Z,3.20
2022-11-24T11:11:23.674Z,3.25
2022-11-24T11:14:01.466Z,3.10
2022-11-24T11:16:50.727Z,3.97
2022-11-24T11:19:49.114Z,3.42
2022-11-24T11:25:11.813Z,3.33
2022-11-24T11:27:41.285Z,3.10
2022-11-24T11:36:18.135Z,3.60
2022-11-24T11:38:47.219Z,11.90
2022-11-24T11:41:25.622Z,30.52
2022-11-24T11:44:08.764Z,34.75
2022-11-24T11:46:36.741Z,11.05
2022-11-24T11:49:04.373Z,17.98
2022-11-24T11:52:08.115Z,14.32
2022-11-24T11:57:51.135Z,5.65
2022-11-24T12:00:21.866Z,3.85
2022-11-24T12:03:44.488Z,4.30
2022-11-24T12:06:47.424Z,3.65
2022-11-24T12:09:45.752Z,4.40
2022-11-24T12:12:38.027Z,3.38
2022-11-24T12:15:49.968Z,3.40
2022-11-24T12:21:50.391Z,4.05
2022-11-24T12:24:36.171Z,4.50
2022-11-24T12:27:39.068Z,4.00
2022-11-24T12:30:11.696Z,3.77
2022-11-24T12:32:41.832Z,3.85
2022-11-24T12:35:29.502Z,3.97
2022-11-24T12:38:31.767Z,4.00
2022-11-24T12:41:41.341Z,13.95
2022-11-24T12:44:28.210Z,11.63
2022-11-24T12:47:17.027Z,8.95
2022-11-24T12:50:02.053Z,9.60
2022-11-24T12:52:39.667Z,4.05
2022-11-24T12:55:17.625Z,6.97
2022-11-24T12:57:59.387Z,6.25
2022-11-24T13:01:04.818Z,12.95
2022-11-24T13:04:06.903Z,9.55
2022-11-24T13:06:56.200Z,9.05
2022-11-24T13:09:23.402Z,5.57
2022-11-24T13:12:13.574Z,7.53
2022-11-24T13:14:50.081Z,5.20
2022-11-24T13:17:38.343Z,3.88
2022-11-24T13:20:19.609Z,3.72
2022-11-24T13:23:08.502Z,3.78
2022-11-24T13:25:38.546Z,5.30
2022-11-24T13:28:06.886Z,12.05
2022-11-24T13:30:34.032Z,32.35
2022-11-24T13:33:16.144Z,16.02
2022-11-24T13:36:02.498Z,4.68
2022-11-24T13:38:45.826Z,3.55
2022-11-24T13:44:14.948Z,3.80
2022-11-24T13:49:46.428Z,3.83
2022-11-24T13:52:35.687Z,3.35
2022-11-24T13:55:22.606Z,3.60
2022-11-24T13:57:59.268Z,4.53
2022-11-24T14:00:33.922Z,3.67
2022-11-24T14:03:26.409Z,4.40
2022-11-24T14:05:54.504Z,4.38
2022-11-24T14:08:33.771Z,4.30
2022-11-24T14:11:03.567Z,15.80
2022-11-24T14:13:34.109Z,19.90
2022-11-24T14:16:10.177Z,34.60
2022-11-24T14:18:41.133Z,46.33
2022-11-24T14:21:20.426Z,39.42
2022-11-24T14:23:53.274Z,23.17
2022-11-24T14:26:42.489Z,11.80
2022-11-24T14:29:21.662Z,29.33
2022-11-24T14:32:01.770Z,25.25
2022-11-24T14:34:35.846Z,25.05
2022-11-24T14:37:03.462Z,9.10
2022-11-24T14:39:39.849Z,5.90
2022-11-24T14:42:20.545Z,6.43
2022-11-24T14:45:03.767Z,6.28
2022-11-24T14:50:15.191Z,5.90
2022-11-24T14:52:57.818Z,5.35
2022-11-24T14:55:31.577Z,5.27
2022-11-24T14:58:00.010Z,5.10
2022-11-24T15:00:31.909Z,7.35
2022-11-24T15:03:02.153Z,9.70
2022-11-24T15:05:55.744Z,10.85
2022-11-24T15:11:02.287Z,4.65
2022-11-24T15:13:37.268Z,5.78
2022-11-24T15:16:16.306Z,5.63
2022-11-24T15:18:47.517Z,5.07
2022-11-24T15:21:19.194Z,4.57
2022-11-24T15:24:07.365Z,9.17
2022-11-24T15:26:41.428Z,26.25
2022-11-24T15:29:13.344Z,65.03
2022-11-24T15:31:45.292Z,21.55
2022-11-24T15:36:07.995Z,6.80
2022-11-24T15:38:35.563Z,6.93
2022-11-24T15:41:19.862Z,13.02
2022-11-24T15:43:48.259Z,6.93
2022-11-24T15:46:16.181Z,9.00
2022-11-24T15:48:43.669Z,8.60
2022-11-24T15:51:14.945Z,6.32
2022-11-24T15:54:00.325Z,9.13
2022-11-24T15:56:36.506Z,8.50
2022-11-24T15:59:04.765Z,5.95
2022-11-24T16:01:34.337Z,7.05
2022-11-24T16:04:02.552Z,10.70
2022-11-24T16:06:32.805Z,6.47
2022-11-24T16:09:00.490Z,5.30
2022-11-24T16:11:28.267Z,6.50
2022-11-24T16:13:56.004Z,8.50
2022-11-24T16:16:25.216Z,13.35
2022-11-24T16:18:52.785Z,10.52
2022-11-24T16:21:20.027Z,8.18
2022-11-24T16:23:48.942Z,8.25
2022-11-24T16:26:16.240Z,9.20
2022-11-24T16:28:45.146Z,9.65
2022-11-24T16:31:16.052Z,9.68
2022-11-24T16:33:46.221Z,9.20
2022-11-24T16:36:14.320Z,8.13
2022-11-24T16:38:41.558Z,8.07
2022-11-24T16:41:10.607Z,10.77
2022-11-24T16:43:39.045Z,12.32
2022-11-24T16:46:09.373Z,13.82
2022-11-24T16:48:37.278Z,14.55
2022-11-24T16:51:07.214Z,10.13
2022-11-24T16:53:34.675Z,12.60
2022-11-24T16:56:02.513Z,10.02
2022-11-24T16:58:29.830Z,9.38
2022-11-24T17:01:10.401Z,9.38
2022-11-24T17:03:38.640Z,8.93
2022-11-24T17:06:09.877Z,8.52
2022-11-24T17:08:39.703Z,8.88
2022-11-24T17:11:12.787Z,9.40
2022-11-24T17:16:18.319Z,10.88
2022-11-24T17:18:50.086Z,12.57
2022-11-24T17:21:23.104Z,12.40
2022-11-24T17:23:59.973Z,10.43
2022-11-24T17:26:28.301Z,9.57
2022-11-24T17:28:56.209Z,9.75
2022-11-24T17:31:35.423Z,9.85
2022-11-24T17:34:05.617Z,15.13
2022-11-24T17:36:36.662Z,33.97
2022-11-24T17:39:09.783Z,50.30
2022-11-24T17:41:37.681Z,22.38
2022-11-24T17:44:07.406Z,15.95
2022-11-24T17:46:34.649Z,13.45
2022-11-24T17:49:02.096Z,11.43
2022-11-24T17:51:29.434Z,12.55
2022-11-24T17:53:57.448Z,11.55
2022-11-24T17:56:27.548Z,11.85
2022-11-24T17:58:58.640Z,11.90
2022-11-24T18:01:28.627Z,10.77
2022-11-24T18:03:56.196Z,12.57
2022-11-24T18:06:26.372Z,14.73
2022-11-24T18:08:55.482Z,13.43
2022-11-24T18:11:31.333Z,13.10
2022-11-24T18:14:03.353Z,14.05
2022-11-24T18:16:34.110Z,13.50
2022-11-24T18:19:08.722Z,13.85
2022-11-24T18:21:38.801Z,15.38
2022-11-24T18:24:08.571Z,14.52
2022-11-24T18:26:35.956Z,14.95
2022-11-24T18:29:04.214Z,15.77
2022-11-24T18:31:32.353Z,14.63
2022-11-24T18:33:59.940Z,15.23
2022-11-24T18:36:30.552Z,14.57
2022-11-24T18:39:02.346Z,17.67
2022-11-24T18:41:29.603Z,27.77
2022-11-24T18:43:56.952Z,26.67
2022-11-24T18:46:24.242Z,39.95
2022-11-24T18:48:53.076Z,36.45
2022-11-24T18:51:22.617Z,44.03
2022-11-24T18:53:58.174Z,82.57
2022-11-24T18:56:26.769Z,78.68
2022-11-24T18:58:56.569Z,72.80
2022-11-24T19:01:28.422Z,90.97
2022-11-24T19:03:59.350Z,108.15
2022-11-24T19:06:36.420Z,105.60
2022-11-24T19:09:11.793Z,106.72
2022-11-24T19:11:42.659Z,149.73
2022-11-24T19:14:15.288Z,96.15
2022-11-24T19:16:43.663Z,91.75
2022-11-24T19:19:12.586Z,94.75
2022-11-24T19:21:41.007Z,76.38
2022-11-24T19:24:10.198Z,46.67
2022-11-24T19:26:38.624Z,38.33
2022-11-24T19:29:07.391Z,28.35
2022-11-24T19:31:35.317Z,22.10
2022-11-24T19:34:03.456Z,21.52
2022-11-24T19:36:31.348Z,23.80
2022-11-24T19:38:59.529Z,23.92
2022-11-24T19:41:30.536Z,25.23
2022-11-24T19:43:59.440Z,23.00
2022-11-24T19:46:29.488Z,24.65
2022-11-24T19:49:00.702Z,24.58
2022-11-24T19:51:32.329Z,27.45
2022-11-24T19:54:00.804Z,25.50
2022-11-24T19:56:31.293Z,26.45
2022-11-24T19:58:58.515Z,28.50
2022-11-24T20:01:37.033Z,28.25
2022-11-24T20:04:13.493Z,26.02
2022-11-24T20:06:44.914Z,25.50
2022-11-24T20:09:16.319Z,24.63
2022-11-24T20:11:44.206Z,24.60
2022-11-24T20:14:14.663Z,25.65
2022-11-24T20:16:42.421Z,24.73
2022-11-24T20:19:13.004Z,23.75
2022-11-24T20:21:41.662Z,23.50
2022-11-24T20:24:18.991Z,25.42
2022-11-24T20:26:51.100Z,20.58
2022-11-24T20:29:20.446Z,25.53
2022-11-24T20:35:37.448Z,24.95
2022-11-24T20:41:22.766Z,26.50
2022-11-24T20:47:50.547Z,26.88
2022-11-24T20:50:18.148Z,26.98
2022-11-24T20:52:58.126Z,26.98
2022-11-24T20:55:33.663Z,27.35
2022-11-24T21:17:33.401Z,26.38
2022-11-24T21:20:13.467Z,24.90
2022-11-24T21:22:59.783Z,25.60
2022-11-24T21:25:38.422Z,27.02
2022-11-24T21:28:13.038Z,27.95
2022-11-24T21:33:57.726Z,24.20
2022-11-24T21:36:59.076Z,26.10
2022-11-24T21:39:29.849Z,22.98
2022-11-24T21:42:46.111Z,24.45
2022-11-24T21:48:05.007Z,26.80
2022-11-24T21:50:35.688Z,25.48
2022-11-24T21:53:12.519Z,25.40
2022-11-24T21:55:46.652Z,32.58
2022-11-24T21:58:17.360Z,26.45
2022-11-24T22:00:52.047Z,24.30
2022-11-24T22:03:22.939Z,24.55
2022-11-24T22:06:09.807Z,27.13
2022-11-24T22:08:48.358Z,25.90
2022-11-24T22:26:42.804Z,24.38
2022-11-24T22:29:27.251Z,22.02
2022-11-24T22:33:47.635Z,20.95
2022-11-24T22:36:50.627Z,22.08
2022-11-24T22:39:18.240Z,20.83
2022-11-24T22:41:49.132Z,21.83
2022-11-24T22:44:20.223Z,21.00
2022-11-24T22:46:52.192Z,24.73
2022-11-24T22:49:26.026Z,24.30
2022-11-24T22:54:50.568Z,22.33
2022-11-24T22:57:22.979Z,22.58
2022-11-24T23:00:36.423Z,21.95
2022-11-24T23:03:17.369Z,23.83
2022-11-24T23:06:07.000Z,24.65
2022-11-24T23:08:49.769Z,25.70
2022-11-24T23:11:38.578Z,26.40
2022-11-24T23:14:49.685Z,23.85
2022-11-24T23:17:53.259Z,25.60
2022-11-24T23:31:48.166Z,26.90
2022-11-24T23:35:32.570Z,25.40
2022-11-24T23:41:17.004Z,24.30
2022-11-24T23:43:49.061Z,24.30
2022-11-24T23:46:45.592Z,23.37
2022-11-24T23:49:31.856Z,23.02
2022-11-24T23:52:41.331Z,24.02
